Fort Worth Nas Jrb/Carswell field
KNFW : now visible

Airfield :











YOU CAN JOIN US ON...

 
LOGIN :

Register | Disclaimer

   EN    FR    IT 

 









Legend :    VFR   Marginal VFR   IFR   Intensive IFR   Very Intensive IFR
Visi :
Ceiling :
>= 8 km
>= 3000ft
5 to 8 km
1000 to 3000 ft
1500m to 5 km
500 to 1000 ft
800 to 1500m
200 to 500 ft
< 800m
< 200 ft
Symbols :   Thunderstorms  Fog  Heavy snow  Heavy precipitations  Wind > 20 kt







- Airport Elevation : 650 ft


KNFW - Fort Worth Nas Jrb/Carswell field

CURRENT METAR :
  • 230252Z 14017G22KT 10SM SCT150 SCT200 22/06 A3000 RMK AO2 SLP144 T02170061 58007 VISNO N $

EXPIRED METARs :
  • 230152Z 13009KT 10SM OVC150 22/06 A3002 RMK AO2 SLP148 T02170056 VISNO N $
  • 230052Z 14011KT 10SM SCT150 BKN250 22/04 A3003 RMK AO2 SLP153 T02220044 VISNO N $
  • 222352Z 16013KT 10SM FEW150 BKN200 23/03 A3003 RMK AO2 SLP151 60000 T02330033 10256 20233 55003 VISNO N $

TAF AMD TAF KNFW
Valid from the 23 at 00:00 until the 23 at 23:00 UTC


2300/2323 14010G20KT 9999 BKN150 BKN200 BKN250 QNH3000INS
BECMG 2302/2304 BKN030 QNH2997INS
TEMPO 2308/2311 8000 -TSRA BR FEW010 OVC030CB
BECMG 2313/2315 18010G30KT 9999 OVC010 QNH2994INS
TEMPO 2318/2323 4800 -TSRA BR OVC010CB AUTOMATED SENSOR METWATCH 2304 TIIL 2311 T14/2313Z T22/2321Z AMD 0033 FN20070
KZFW FIR / North America



MET'MAP, your aeronautical weather chart ! - Copyright ORBIFLY December 2007 - Disclaimer

ORBIFLY MET'MAP TEAM :

Programming & Development : Alexandra Zaïnal
Concept & Development : Baudouin d'Aumeries
Co-Development & Prog : Marc-Olivier Méhu
Technical & hardware support : Manuel Goepfert

Contact : metmap@orbifly.com




SOURCES & CREDITS :

   NOAA       Earth
Advisory